Bootsie B, — WDF9484 — position and weather

sailwx.info

Track history (hours):
 
Tides and Currents Weather Stations Pressure Air Temp Water Temp Dewpoint Dewpoint Depression Visibility Wind Speed Wind Dir Waves Ship Positions

Bootsie B,

Owner: Marquette Transp[ortation Co. LLC, Paducah, KY. More information available from US FCC via Universal Licensing System and Coast Guard Vessel Documentation Center.

Last reported at 2017-Dec-08 09:29 UTC. Time now 2017-Dec-15 18:04 UTC.
Position N 32°40' W 091°08'.

Length 57 m; draft 3.4 m.

Type: Towing. MMSI: 367505630.

Date/timePositionNaut miles runAvg speedWind from/ knotsBaromVisibWave heightAir tempDewpointWater temp
2017-Dec-08 09:29N 32°40' W 091°08'2 4.2
2017-Dec-08 08:57N 32°38' W 091°09'2 4.3
2017-Dec-08 08:30N 32°36' W 091°09'2 4.6
2017-Dec-08 08:00N 32°35' W 091°07'3 4.1
2017-Dec-08 07:21N 32°32' W 091°06'2 4.9
2017-Dec-08 06:59N 32°30' W 091°07'2 4.8
2017-Dec-08 06:30N 32°28' W 091°06'2 4.9
2017-Dec-08 06:00N 32°27' W 091°04'2 4.8
2017-Dec-08 05:30N 32°26' W 091°01'2 4.2
2017-Dec-08 05:00N 32°24' W 090°59'2 4.0
2017-Dec-08 04:30N 32°22' W 091°00'2 3.2
2017-Dec-08 04:00N 32°21' W 090°59'3 5.1
2017-Dec-08 03:30N 32°21' W 090°56'2 4.4
2017-Dec-08 03:00N 32°20' W 090°54'2 4.9
2017-Dec-08 02:30N 32°18' W 090°56'2 4.9
2017-Dec-08 02:00N 32°16' W 090°58'2 3.7
2017-Dec-08 01:30N 32°15' W 090°59'0 0.1
2017-Dec-08 01:00N 32°15' W 090°59'0 0.1
2017-Dec-08 00:30N 32°15' W 090°59'1 1.7
2017-Dec-08 00:00N 32°14' W 090°59'2 4.7
2017-Dec-07 23:30N 32°11' W 090°60'2 4.6
2017-Dec-07 23:00N 32°09' W 091°00'2 4.5
2017-Dec-07 22:30N 32°07' W 091°01'3 4.6
2017-Dec-07 21:55N 32°08' W 091°05'2 4.3
2017-Dec-07 21:30N 32°07' W 091°07'5 4.3
2017-Dec-07 20:21N 32°03' W 091°04'2 5.6
2017-Dec-07 20:00N 32°01' W 091°04'  
2017-Dec-03 01:33N 31°42' W 091°24'7 9.2
2017-Dec-03 00:45N 31°49' W 091°21'11 8.1
2017-Dec-02 23:23N 31°57' W 091°12'5 8.2
2017-Dec-02 22:44N 31°59' W 091°06'2 9.0
2017-Dec-02 22:29N 32°01' W 091°04'4 8.1
2017-Dec-02 21:56N 32°05' W 091°05'3 6.0
2017-Dec-02 21:30N 32°08' W 091°05'4 8.3
2017-Dec-02 21:00N 32°08' W 091°00'5 9.5
2017-Dec-02 20:30N 32°13' W 090°59'5 9.3
2017-Dec-02 20:00N 32°17' W 090°57'4 8.2
2017-Dec-02 19:30N 32°20' W 090°54'3 5.1
2017-Dec-02 19:00N 32°21' W 090°57'3 5.9
2017-Dec-02 18:30N 32°22' W 091°00'4 7.7
2017-Dec-02 18:01N 32°26' W 091°01'5 9.2
2017-Dec-02 17:30N 32°28' W 091°06'4 8.9
2017-Dec-02 17:00N 32°32' W 091°06'5 9.0
2017-Dec-02 16:30N 32°36' W 091°09'4 8.5
2017-Dec-02 16:00N 32°40' W 091°07'5 4.3
2017-Dec-02 14:46N 32°45' W 091°09'3 8.9
2017-Dec-02 14:23N 32°49' W 091°09'4 9.6
2017-Dec-02 14:00N 32°52' W 091°07'  
Track history (hours):
 
Tides and Currents Weather Stations Pressure Air Temp Water Temp Dewpoint Dewpoint Depression Visibility Wind Speed Wind Dir Waves Ship Positions

Bootsie B,

Owner: Marquette Transp[ortation Co. LLC, Paducah, KY. More information available from US FCC via Universal Licensing System and Coast Guard Vessel Documentation Center.

Last reported at 2017-Dec-08 09:29 UTC. Time now 2017-Dec-15 18:04 UTC.
Position N 32°40' W 091°08'.

Length 57 m; draft 3.4 m.

Type: Towing. MMSI: 367505630.

Date/timePositionNaut miles runAvg speedWind from/ knotsBaromVisibWave heightAir tempDewpointWater temp
2017-Dec-08 09:29N 32°40' W 091°08'2 4.2
2017-Dec-08 08:57N 32°38' W 091°09'2 4.3
2017-Dec-08 08:30N 32°36' W 091°09'2 4.6
2017-Dec-08 08:00N 32°35' W 091°07'3 4.1
2017-Dec-08 07:21N 32°32' W 091°06'2 4.9
2017-Dec-08 06:59N 32°30' W 091°07'2 4.8
2017-Dec-08 06:30N 32°28' W 091°06'2 4.9
2017-Dec-08 06:00N 32°27' W 091°04'2 4.8
2017-Dec-08 05:30N 32°26' W 091°01'2 4.2
2017-Dec-08 05:00N 32°24' W 090°59'2 4.0
2017-Dec-08 04:30N 32°22' W 091°00'2 3.2
2017-Dec-08 04:00N 32°21' W 090°59'3 5.1
2017-Dec-08 03:30N 32°21' W 090°56'2 4.4
2017-Dec-08 03:00N 32°20' W 090°54'2 4.9
2017-Dec-08 02:30N 32°18' W 090°56'2 4.9
2017-Dec-08 02:00N 32°16' W 090°58'2 3.7
2017-Dec-08 01:30N 32°15' W 090°59'0 0.1
2017-Dec-08 01:00N 32°15' W 090°59'0 0.1
2017-Dec-08 00:30N 32°15' W 090°59'1 1.7
2017-Dec-08 00:00N 32°14' W 090°59'2 4.7
2017-Dec-07 23:30N 32°11' W 090°60'2 4.6
2017-Dec-07 23:00N 32°09' W 091°00'2 4.5
2017-Dec-07 22:30N 32°07' W 091°01'3 4.6
2017-Dec-07 21:55N 32°08' W 091°05'2 4.3
2017-Dec-07 21:30N 32°07' W 091°07'5 4.3
2017-Dec-07 20:21N 32°03' W 091°04'2 5.6
2017-Dec-07 20:00N 32°01' W 091°04'  
2017-Dec-03 01:33N 31°42' W 091°24'7 9.2
2017-Dec-03 00:45N 31°49' W 091°21'11 8.1
2017-Dec-02 23:23N 31°57' W 091°12'5 8.2
2017-Dec-02 22:44N 31°59' W 091°06'2 9.0
2017-Dec-02 22:29N 32°01' W 091°04'4 8.1
2017-Dec-02 21:56N 32°05' W 091°05'3 6.0
2017-Dec-02 21:30N 32°08' W 091°05'4 8.3
2017-Dec-02 21:00N 32°08' W 091°00'5 9.5
2017-Dec-02 20:30N 32°13' W 090°59'5 9.3
2017-Dec-02 20:00N 32°17' W 090°57'4 8.2
2017-Dec-02 19:30N 32°20' W 090°54'3 5.1
2017-Dec-02 19:00N 32°21' W 090°57'3 5.9
2017-Dec-02 18:30N 32°22' W 091°00'4 7.7
2017-Dec-02 18:01N 32°26' W 091°01'5 9.2
2017-Dec-02 17:30N 32°28' W 091°06'4 8.9
2017-Dec-02 17:00N 32°32' W 091°06'5 9.0
2017-Dec-02 16:30N 32°36' W 091°09'4 8.5
2017-Dec-02 16:00N 32°40' W 091°07'5 4.3
2017-Dec-02 14:46N 32°45' W 091°09'3 8.9
2017-Dec-02 14:23N 32°49' W 091°09'4 9.6
2017-Dec-02 14:00N 32°52' W 091°07'  

Dump ship's entire track history